sensor_id;sensor_type;location;lat;lon;timestamp;pressure;altitude;pressure_sealevel;temperature;humidity
66801;BME280;53703;50.326;19.122;2023-02-20T00:02:15;99238.53;;;18.32;39.43
66801;BME280;53703;50.326;19.122;2023-02-20T00:05:12;99232.02;;;18.33;39.37
66801;BME280;53703;50.326;19.122;2023-02-20T00:08:08;99228.02;;;18.32;39.32
66801;BME280;53703;50.326;19.122;2023-02-20T00:11:03;99230.31;;;18.31;39.37
66801;BME280;53703;50.326;19.122;2023-02-20T00:13:56;99225.75;;;18.32;39.33
66801;BME280;53703;50.326;19.122;2023-02-20T00:16:50;99226.30;;;18.34;39.31
66801;BME280;53703;50.326;19.122;2023-02-20T00:19:44;99228.42;;;18.35;39.23
66801;BME280;53703;50.326;19.122;2023-02-20T00:22:37;99224.78;;;18.32;39.17
66801;BME280;53703;50.326;19.122;2023-02-20T00:25:31;99216.82;;;18.30;39.31
66801;BME280;53703;50.326;19.122;2023-02-20T00:28:25;99219.62;;;18.31;39.32
66801;BME280;53703;50.326;19.122;2023-02-20T00:31:19;99223.92;;;18.30;39.24
66801;BME280;53703;50.326;19.122;2023-02-20T00:34:13;99222.86;;;18.27;39.25
66801;BME280;53703;50.326;19.122;2023-02-20T00:37:07;99224.39;;;18.28;39.26
66801;BME280;53703;50.326;19.122;2023-02-20T00:40:01;99223.42;;;18.25;39.33
66801;BME280;53703;50.326;19.122;2023-02-20T00:42:55;99223.69;;;18.26;39.19
66801;BME280;53703;50.326;19.122;2023-02-20T00:45:48;99218.79;;;18.25;39.33
66801;BME280;53703;50.326;19.122;2023-02-20T00:48:42;99219.30;;;18.25;39.41
66801;BME280;53703;50.326;19.122;2023-02-20T00:51:36;99215.40;;;18.23;39.31
66801;BME280;53703;50.326;19.122;2023-02-20T00:54:30;99219.85;;;18.22;39.35
66801;BME280;53703;50.326;19.122;2023-02-20T00:57:23;99224.64;;;18.21;39.29
66801;BME280;53703;50.326;19.122;2023-02-20T01:00:28;99228.22;;;18.20;39.29
66801;BME280;53703;50.326;19.122;2023-02-20T01:03:23;99235.40;;;18.18;39.36
66801;BME280;53703;50.326;19.122;2023-02-20T01:06:17;99235.45;;;18.17;39.31
66801;BME280;53703;50.326;19.122;2023-02-20T01:09:11;99230.13;;;18.14;39.36
66801;BME280;53703;50.326;19.122;2023-02-20T01:12:05;99228.79;;;18.14;39.34
66801;BME280;53703;50.326;19.122;2023-02-20T01:14:59;99223.68;;;18.15;39.30
66801;BME280;53703;50.326;19.122;2023-02-20T01:17:52;99226.42;;;18.13;39.33
66801;BME280;53703;50.326;19.122;2023-02-20T01:20:46;99218.54;;;18.11;39.34
66801;BME280;53703;50.326;19.122;2023-02-20T01:23:40;99218.25;;;18.11;39.35
66801;BME280;53703;50.326;19.122;2023-02-20T01:26:34;99216.98;;;18.08;39.28
66801;BME280;53703;50.326;19.122;2023-02-20T01:29:28;99216.29;;;18.05;39.41
66801;BME280;53703;50.326;19.122;2023-02-20T01:32:22;99222.64;;;18.05;39.34
66801;BME280;53703;50.326;19.122;2023-02-20T01:35:17;99222.44;;;18.03;39.39
66801;BME280;53703;50.326;19.122;2023-02-20T01:38:11;99216.05;;;18.01;39.34
66801;BME280;53703;50.326;19.122;2023-02-20T01:41:05;99215.58;;;18.03;39.33
66801;BME280;53703;50.326;19.122;2023-02-20T01:43:59;99210.89;;;18.00;39.32
66801;BME280;53703;50.326;19.122;2023-02-20T01:46:55;99203.55;;;18.00;39.46
66801;BME280;53703;50.326;19.122;2023-02-20T01:49:53;99206.48;;;17.99;39.42
66801;BME280;53703;50.326;19.122;2023-02-20T01:52:50;99205.94;;;17.99;39.39
66801;BME280;53703;50.326;19.122;2023-02-20T01:55:48;99206.02;;;17.95;39.48
66801;BME280;53703;50.326;19.122;2023-02-20T01:58:47;99204.92;;;17.93;39.37
66801;BME280;53703;50.326;19.122;2023-02-20T02:01:32;99197.85;;;17.92;39.44
66801;BME280;53703;50.326;19.122;2023-02-20T02:04:27;99186.52;;;17.92;39.44
66801;BME280;53703;50.326;19.122;2023-02-20T02:07:21;99176.55;;;17.91;39.28
66801;BME280;53703;50.326;19.122;2023-02-20T02:10:19;99173.09;;;17.88;39.43
66801;BME280;53703;50.326;19.122;2023-02-20T02:13:17;99164.91;;;17.89;39.26
66801;BME280;53703;50.326;19.122;2023-02-20T02:16:20;99156.15;;;17.86;39.31
66801;BME280;53703;50.326;19.122;2023-02-20T02:19:54;99150.79;;;17.87;39.29
66801;BME280;53703;50.326;19.122;2023-02-20T02:27:40;99140.17;;;17.85;39.19
66801;BME280;53703;50.326;19.122;2023-02-20T02:31:26;99131.91;;;17.84;39.28
66801;BME280;53703;50.326;19.122;2023-02-20T02:35:22;99134.13;;;17.82;39.00
66801;BME280;53703;50.326;19.122;2023-02-20T02:38:28;99135.27;;;17.81;39.04
66801;BME280;53703;50.326;19.122;2023-02-20T02:41:33;99131.81;;;17.77;39.21
66801;BME280;53703;50.326;19.122;2023-02-20T02:44:35;99129.09;;;17.73;39.32
66801;BME280;53703;50.326;19.122;2023-02-20T02:47:36;99131.55;;;17.65;38.81
66801;BME280;53703;50.326;19.122;2023-02-20T02:50:35;99131.44;;;17.67;38.88
66801;BME280;53703;50.326;19.122;2023-02-20T02:53:31;99133.55;;;17.66;39.36
66801;BME280;53703;50.326;19.122;2023-02-20T02:56:36;99138.77;;;17.63;39.55
66801;BME280;53703;50.326;19.122;2023-02-20T02:59:33;99133.77;;;17.62;39.57
66801;BME280;53703;50.326;19.122;2023-02-20T03:02:32;99142.98;;;17.60;39.76
66801;BME280;53703;50.326;19.122;2023-02-20T03:05:33;99133.13;;;17.59;39.76
66801;BME280;53703;50.326;19.122;2023-02-20T03:08:54;99123.55;;;17.59;39.97
66801;BME280;53703;50.326;19.122;2023-02-20T03:11:52;99124.37;;;17.61;39.91
66801;BME280;53703;50.326;19.122;2023-02-20T03:14:53;99123.94;;;17.57;40.18
66801;BME280;53703;50.326;19.122;2023-02-20T03:18:23;99113.46;;;17.57;40.22
66801;BME280;53703;50.326;19.122;2023-02-20T03:21:24;99101.00;;;17.55;40.35
66801;BME280;53703;50.326;19.122;2023-02-20T03:24:20;99097.67;;;17.58;40.27
66801;BME280;53703;50.326;19.122;2023-02-20T03:27:14;99096.28;;;17.57;40.40
66801;BME280;53703;50.326;19.122;2023-02-20T03:30:16;99106.17;;;17.58;40.39
66801;BME280;53703;50.326;19.122;2023-02-20T03:33:18;99106.89;;;17.58;40.43
66801;BME280;53703;50.326;19.122;2023-02-20T03:36:36;99104.00;;;17.54;40.60
66801;BME280;53703;50.326;19.122;2023-02-20T03:39:52;99103.77;;;17.52;40.62
66801;BME280;53703;50.326;19.122;2023-02-20T03:43:08;99102.94;;;17.51;40.74
66801;BME280;53703;50.326;19.122;2023-02-20T03:46:20;99102.19;;;17.52;40.74
66801;BME280;53703;50.326;19.122;2023-02-20T03:49:20;99106.48;;;17.54;40.69
66801;BME280;53703;50.326;19.122;2023-02-20T03:52:15;99110.61;;;17.51;40.80
66801;BME280;53703;50.326;19.122;2023-02-20T03:55:10;99107.38;;;17.50;40.79
66801;BME280;53703;50.326;19.122;2023-02-20T03:58:08;99098.37;;;17.47;40.93
66801;BME280;53703;50.326;19.122;2023-02-20T04:01:04;99093.24;;;17.47;41.00
66801;BME280;53703;50.326;19.122;2023-02-20T04:04:00;99096.69;;;17.44;41.08
66801;BME280;53703;50.326;19.122;2023-02-20T04:06:55;99090.19;;;17.47;40.90
66801;BME280;53703;50.326;19.122;2023-02-20T04:09:50;99090.83;;;17.44;41.02
66801;BME280;53703;50.326;19.122;2023-02-20T04:12:46;99085.55;;;17.42;41.02
66801;BME280;53703;50.326;19.122;2023-02-20T04:15:42;99086.33;;;17.43;41.05
66801;BME280;53703;50.326;19.122;2023-02-20T04:18:37;99085.60;;;17.39;41.10
66801;BME280;53703;50.326;19.122;2023-02-20T04:21:38;99081.80;;;17.40;41.04
66801;BME280;53703;50.326;19.122;2023-02-20T04:24:39;99080.79;;;17.39;41.13
66801;BME280;53703;50.326;19.122;2023-02-20T04:27:35;99082.83;;;17.39;41.16
66801;BME280;53703;50.326;19.122;2023-02-20T04:30:29;99080.92;;;17.38;41.08
66801;BME280;53703;50.326;19.122;2023-02-20T04:33:23;99074.52;;;17.37;41.11
66801;BME280;53703;50.326;19.122;2023-02-20T04:36:17;99072.85;;;17.33;41.24
66801;BME280;53703;50.326;19.122;2023-02-20T04:39:11;99073.30;;;17.33;41.32
66801;BME280;53703;50.326;19.122;2023-02-20T04:42:06;99077.16;;;17.33;41.28
66801;BME280;53703;50.326;19.122;2023-02-20T04:45:00;99077.80;;;17.29;41.33
66801;BME280;53703;50.326;19.122;2023-02-20T04:47:54;99068.19;;;17.31;41.26
66801;BME280;53703;50.326;19.122;2023-02-20T04:50:47;99061.20;;;17.28;41.26
66801;BME280;53703;50.326;19.122;2023-02-20T04:53:41;99058.96;;;17.26;41.36
66801;BME280;53703;50.326;19.122;2023-02-20T04:56:35;99048.66;;;17.23;41.45
66801;BME280;53703;50.326;19.122;2023-02-20T04:59:29;99047.10;;;17.23;41.42
66801;BME280;53703;50.326;19.122;2023-02-20T05:02:23;99044.39;;;17.24;41.44
66801;BME280;53703;50.326;19.122;2023-02-20T05:05:22;99044.60;;;17.24;41.43
66801;BME280;53703;50.326;19.122;2023-02-20T05:08:16;99042.77;;;17.22;41.53
66801;BME280;53703;50.326;19.122;2023-02-20T05:11:10;99034.58;;;17.21;41.42
66801;BME280;53703;50.326;19.122;2023-02-20T05:14:04;99020.57;;;17.18;41.56
66801;BME280;53703;50.326;19.122;2023-02-20T05:16:58;99017.73;;;17.20;41.61
66801;BME280;53703;50.326;19.122;2023-02-20T05:19:52;99020.07;;;17.19;41.47
66801;BME280;53703;50.326;19.122;2023-02-20T05:22:47;99016.50;;;17.16;41.66
66801;BME280;53703;50.326;19.122;2023-02-20T05:25:41;99020.84;;;17.19;41.52
66801;BME280;53703;50.326;19.122;2023-02-20T05:28:35;99023.39;;;17.19;41.48
66801;BME280;53703;50.326;19.122;2023-02-20T05:31:30;99020.79;;;17.15;41.67
66801;BME280;53703;50.326;19.122;2023-02-20T05:34:24;99020.46;;;17.15;41.58
66801;BME280;53703;50.326;19.122;2023-02-20T05:37:20;99017.06;;;17.13;41.57
66801;BME280;53703;50.326;19.122;2023-02-20T05:40:15;99028.09;;;17.13;41.56
66801;BME280;53703;50.326;19.122;2023-02-20T05:43:09;99027.64;;;17.11;41.66
66801;BME280;53703;50.326;19.122;2023-02-20T05:46:03;99025.61;;;17.08;41.85
66801;BME280;53703;50.326;19.122;2023-02-20T05:48:57;99026.00;;;17.12;42.11
66801;BME280;53703;50.326;19.122;2023-02-20T05:51:51;99038.27;;;17.11;42.17
66801;BME280;53703;50.326;19.122;2023-02-20T05:54:47;99039.73;;;17.16;41.90
66801;BME280;53703;50.326;19.122;2023-02-20T05:57:43;99036.85;;;17.19;41.99
66801;BME280;53703;50.326;19.122;2023-02-20T06:00:37;99033.60;;;17.29;41.62
66801;BME280;53703;50.326;19.122;2023-02-20T06:03:31;99029.52;;;17.19;41.66
66801;BME280;53703;50.326;19.122;2023-02-20T06:06:32;99028.96;;;17.17;41.71
66801;BME280;53703;50.326;19.122;2023-02-20T06:09:25;99032.77;;;17.19;41.63
66801;BME280;53703;50.326;19.122;2023-02-20T06:12:19;99037.30;;;17.19;41.58
66801;BME280;53703;50.326;19.122;2023-02-20T06:15:13;99039.98;;;17.12;41.82
66801;BME280;53703;50.326;19.122;2023-02-20T06:18:08;99044.08;;;17.16;41.75
66801;BME280;53703;50.326;19.122;2023-02-20T06:21:01;99045.98;;;17.13;41.67
66801;BME280;53703;50.326;19.122;2023-02-20T06:23:56;99046.98;;;17.08;41.77
66801;BME280;53703;50.326;19.122;2023-02-20T06:26:50;99044.99;;;17.12;41.79
66801;BME280;53703;50.326;19.122;2023-02-20T06:29:46;99042.48;;;17.16;42.04
66801;BME280;53703;50.326;19.122;2023-02-20T06:32:40;99035.75;;;17.07;41.99
66801;BME280;53703;50.326;19.122;2023-02-20T06:35:34;99031.20;;;17.04;42.12
66801;BME280;53703;50.326;19.122;2023-02-20T06:38:28;99026.73;;;17.08;42.06
66801;BME280;53703;50.326;19.122;2023-02-20T06:41:22;99020.27;;;17.04;42.30
66801;BME280;53703;50.326;19.122;2023-02-20T06:44:16;99011.96;;;16.99;42.27
66801;BME280;53703;50.326;19.122;2023-02-20T06:47:10;99012.31;;;17.10;42.42
66801;BME280;53703;50.326;19.122;2023-02-20T06:50:04;99017.52;;;17.12;42.17
66801;BME280;53703;50.326;19.122;2023-02-20T06:52:58;99023.38;;;17.19;43.04
66801;BME280;53703;50.326;19.122;2023-02-20T06:55:51;99022.39;;;17.08;43.44
66801;BME280;53703;50.326;19.122;2023-02-20T06:58:29;99023.76;;;17.01;43.39
66801;BME280;53703;50.326;19.122;2023-02-20T07:01:08;99026.47;;;17.00;43.57
66801;BME280;53703;50.326;19.122;2023-02-20T07:04:04;99025.73;;;17.01;43.22
66801;BME280;53703;50.326;19.122;2023-02-20T07:06:58;99022.21;;;17.00;42.90
66801;BME280;53703;50.326;19.122;2023-02-20T07:09:53;99015.60;;;16.92;44.10
66801;BME280;53703;50.326;19.122;2023-02-20T07:12:31;99011.70;;;16.81;46.64
66801;BME280;53703;50.326;19.122;2023-02-20T07:15:25;99005.75;;;16.90;45.39
66801;BME280;53703;50.326;19.122;2023-02-20T07:18:19;99010.94;;;16.11;42.30
66801;BME280;53703;50.326;19.122;2023-02-20T07:21:15;99010.13;;;14.02;43.66
66801;BME280;53703;50.326;19.122;2023-02-20T07:24:10;99003.67;;;16.13;40.72
66801;BME280;53703;50.326;19.122;2023-02-20T07:26:59;98995.54;;;16.66;40.60
66801;BME280;53703;50.326;19.122;2023-02-20T07:29:50;98993.90;;;16.72;41.33
66801;BME280;53703;50.326;19.122;2023-02-20T07:32:44;98990.47;;;16.75;41.25
66801;BME280;53703;50.326;19.122;2023-02-20T07:35:38;98987.61;;;16.91;41.27
66801;BME280;53703;50.326;19.122;2023-02-20T07:38:32;98980.92;;;16.96;41.67
66801;BME280;53703;50.326;19.122;2023-02-20T07:41:30;98979.63;;;16.88;42.28
66801;BME280;53703;50.326;19.122;2023-02-20T07:44:26;98975.33;;;16.85;42.25
66801;BME280;53703;50.326;19.122;2023-02-20T07:47:20;98976.67;;;16.78;42.82
66801;BME280;53703;50.326;19.122;2023-02-20T07:50:15;98969.83;;;16.84;42.85
66801;BME280;53703;50.326;19.122;2023-02-20T07:53:12;98953.76;;;16.96;42.01
66801;BME280;53703;50.326;19.122;2023-02-20T07:56:08;98944.59;;;16.99;41.98
66801;BME280;53703;50.326;19.122;2023-02-20T07:59:02;98933.96;;;17.18;41.74
66801;BME280;53703;50.326;19.122;2023-02-20T08:01:57;98936.38;;;17.41;40.79
66801;BME280;53703;50.326;19.122;2023-02-20T08:04:50;98935.56;;;17.51;40.99
66801;BME280;53703;50.326;19.122;2023-02-20T08:07:49;98940.98;;;17.22;42.50
66801;BME280;53703;50.326;19.122;2023-02-20T08:10:43;98943.43;;;17.12;43.97
66801;BME280;53703;50.326;19.122;2023-02-20T08:13:37;98945.43;;;17.00;44.66
66801;BME280;53703;50.326;19.122;2023-02-20T08:16:16;98943.91;;;17.00;44.13
66801;BME280;53703;50.326;19.122;2023-02-20T08:19:10;98943.96;;;17.03;44.07
66801;BME280;53703;50.326;19.122;2023-02-20T08:22:04;98947.23;;;16.98;43.89
66801;BME280;53703;50.326;19.122;2023-02-20T08:24:59;98943.21;;;16.98;43.91
66801;BME280;53703;50.326;19.122;2023-02-20T08:27:55;98933.04;;;17.04;44.08
66801;BME280;53703;50.326;19.122;2023-02-20T08:30:34;98927.87;;;16.98;44.22
66801;BME280;53703;50.326;19.122;2023-02-20T08:33:27;98935.95;;;16.87;44.60
66801;BME280;53703;50.326;19.122;2023-02-20T08:36:21;98931.34;;;16.82;44.24
66801;BME280;53703;50.326;19.122;2023-02-20T08:39:15;98927.27;;;16.85;44.18
66801;BME280;53703;50.326;19.122;2023-02-20T08:42:13;98923.17;;;16.84;43.69
66801;BME280;53703;50.326;19.122;2023-02-20T08:45:07;98912.01;;;16.83;43.78
66801;BME280;53703;50.326;19.122;2023-02-20T08:48:01;98904.86;;;16.82;43.63
66801;BME280;53703;50.326;19.122;2023-02-20T08:50:55;98907.64;;;16.82;43.94
66801;BME280;53703;50.326;19.122;2023-02-20T08:53:49;98893.55;;;16.76;46.58
66801;BME280;53703;50.326;19.122;2023-02-20T08:56:43;98893.12;;;16.77;47.28
66801;BME280;53703;50.326;19.122;2023-02-20T08:59:37;98883.47;;;16.80;46.06
66801;BME280;53703;50.326;19.122;2023-02-20T09:02:31;98884.52;;;16.79;45.47
66801;BME280;53703;50.326;19.122;2023-02-20T09:05:25;98884.07;;;16.78;44.90
66801;BME280;53703;50.326;19.122;2023-02-20T09:08:19;98877.94;;;16.78;44.55
66801;BME280;53703;50.326;19.122;2023-02-20T09:11:14;98871.02;;;16.76;44.55
66801;BME280;53703;50.326;19.122;2023-02-20T09:14:09;98859.01;;;16.72;44.62
66801;BME280;53703;50.326;19.122;2023-02-20T09:17:03;98857.05;;;16.90;44.40
66801;BME280;53703;50.326;19.122;2023-02-20T09:19:57;98854.98;;;16.91;44.75
66801;BME280;53703;50.326;19.122;2023-02-20T09:22:55;98862.22;;;16.78;44.43
66801;BME280;53703;50.326;19.122;2023-02-20T09:25:50;98865.42;;;16.73;44.63
66801;BME280;53703;50.326;19.122;2023-02-20T09:28:44;98860.43;;;16.79;44.16
66801;BME280;53703;50.326;19.122;2023-02-20T09:31:38;98845.52;;;16.76;44.18
66801;BME280;53703;50.326;19.122;2023-02-20T09:34:32;98839.91;;;16.82;43.87
66801;BME280;53703;50.326;19.122;2023-02-20T09:37:26;98838.66;;;16.76;43.84
66801;BME280;53703;50.326;19.122;2023-02-20T09:40:22;98829.23;;;16.81;43.87
66801;BME280;53703;50.326;19.122;2023-02-20T09:43:28;98819.44;;;16.78;44.26
66801;BME280;53703;50.326;19.122;2023-02-20T09:46:24;98820.88;;;16.65;48.42
66801;BME280;53703;50.326;19.122;2023-02-20T09:49:21;98818.35;;;16.80;49.78
66801;BME280;53703;50.326;19.122;2023-02-20T09:52:17;98816.02;;;16.55;49.63
66801;BME280;53703;50.326;19.122;2023-02-20T09:55:17;98813.11;;;16.68;46.67
66801;BME280;53703;50.326;19.122;2023-02-20T09:58:25;98813.55;;;15.03;48.41
66801;BME280;53703;50.326;19.122;2023-02-20T10:01:22;98807.71;;;12.96;48.40
66801;BME280;53703;50.326;19.122;2023-02-20T10:04:20;98809.02;;;15.32;46.66
66801;BME280;53703;50.326;19.122;2023-02-20T10:07:22;98800.20;;;16.18;44.94
66801;BME280;53703;50.326;19.122;2023-02-20T10:10:24;98790.56;;;16.40;44.61
66801;BME280;53703;50.326;19.122;2023-02-20T10:13:12;98783.73;;;16.44;44.30
66801;BME280;53703;50.326;19.122;2023-02-20T10:16:21;98781.47;;;16.47;44.33
66801;BME280;53703;50.326;19.122;2023-02-20T10:19:28;98776.98;;;16.49;44.29
66801;BME280;53703;50.326;19.122;2023-02-20T10:22:50;98763.58;;;16.61;44.08
66801;BME280;53703;50.326;19.122;2023-02-20T10:25:51;98751.20;;;16.55;44.11
66801;BME280;53703;50.326;19.122;2023-02-20T10:28:48;98752.63;;;16.70;44.01
66801;BME280;53703;50.326;19.122;2023-02-20T10:31:46;98741.77;;;16.84;43.92
66801;BME280;53703;50.326;19.122;2023-02-20T10:34:48;98735.41;;;16.77;44.84
66801;BME280;53703;50.326;19.122;2023-02-20T10:37:39;98729.98;;;16.64;46.45
66801;BME280;53703;50.326;19.122;2023-02-20T10:40:44;98730.21;;;16.68;44.77
66801;BME280;53703;50.326;19.122;2023-02-20T10:43:45;98730.64;;;16.65;44.43
66801;BME280;53703;50.326;19.122;2023-02-20T10:46:47;98732.05;;;16.63;44.36
66801;BME280;53703;50.326;19.122;2023-02-20T10:49:55;98719.54;;;16.74;44.31
66801;BME280;53703;50.326;19.122;2023-02-20T10:52:53;98719.38;;;16.71;43.73
66801;BME280;53703;50.326;19.122;2023-02-20T10:55:55;98705.41;;;16.68;43.79
66801;BME280;53703;50.326;19.122;2023-02-20T10:59:00;98684.22;;;16.70;43.84
66801;BME280;53703;50.326;19.122;2023-02-20T11:01:59;98682.21;;;16.88;43.94
66801;BME280;53703;50.326;19.122;2023-02-20T11:05:01;98669.14;;;16.73;43.98
66801;BME280;53703;50.326;19.122;2023-02-20T11:07:56;98662.98;;;16.81;44.06
66801;BME280;53703;50.326;19.122;2023-02-20T11:10:55;98654.94;;;16.82;43.92
66801;BME280;53703;50.326;19.122;2023-02-20T11:13:50;98650.47;;;16.88;43.82
66801;BME280;53703;50.326;19.122;2023-02-20T11:16:51;98648.73;;;16.87;43.81
66801;BME280;53703;50.326;19.122;2023-02-20T11:19:50;98646.44;;;16.87;43.79
66801;BME280;53703;50.326;19.122;2023-02-20T11:22:47;98640.33;;;16.84;43.85
66801;BME280;53703;50.326;19.122;2023-02-20T11:25:42;98634.02;;;16.97;43.73
66801;BME280;53703;50.326;19.122;2023-02-20T11:28:36;98614.29;;;16.98;43.67
66801;BME280;53703;50.326;19.122;2023-02-20T11:31:31;98602.90;;;16.90;43.65
66801;BME280;53703;50.326;19.122;2023-02-20T11:34:31;98600.45;;;16.87;43.83
66801;BME280;53703;50.326;19.122;2023-02-20T11:37:25;98588.13;;;16.93;43.68
66801;BME280;53703;50.326;19.122;2023-02-20T11:40:23;98585.84;;;16.93;43.67
66801;BME280;53703;50.326;19.122;2023-02-20T11:43:23;98570.46;;;16.93;43.66
66801;BME280;53703;50.326;19.122;2023-02-20T11:46:20;98562.30;;;16.93;43.65
66801;BME280;53703;50.326;19.122;2023-02-20T11:49:25;98559.61;;;17.03;43.55
66801;BME280;53703;50.326;19.122;2023-02-20T11:52:23;98533.05;;;17.15;44.12
66801;BME280;53703;50.326;19.122;2023-02-20T11:55:24;98527.20;;;17.27;43.79
66801;BME280;53703;50.326;19.122;2023-02-20T11:58:27;98528.01;;;17.36;43.78
66801;BME280;53703;50.326;19.122;2023-02-20T12:01:33;98529.61;;;17.53;43.56
66801;BME280;53703;50.326;19.122;2023-02-20T12:04:22;98512.00;;;17.54;44.17
66801;BME280;53703;50.326;19.122;2023-02-20T12:07:28;98507.52;;;17.53;43.93
66801;BME280;53703;50.326;19.122;2023-02-20T12:10:39;98525.81;;;17.61;43.74
66801;BME280;53703;50.326;19.122;2023-02-20T12:13:37;98492.35;;;17.62;43.45
66801;BME280;53703;50.326;19.122;2023-02-20T12:19:48;98491.36;;;17.90;43.91
66801;BME280;53703;50.326;19.122;2023-02-20T12:22:50;98487.23;;;17.97;43.74
66801;BME280;53703;50.326;19.122;2023-02-20T12:26:04;98484.48;;;17.89;44.44
66801;BME280;53703;50.326;19.122;2023-02-20T12:29:14;98474.76;;;17.91;43.60
66801;BME280;53703;50.326;19.122;2023-02-20T12:32:11;98462.74;;;17.93;43.96
66801;BME280;53703;50.326;19.122;2023-02-20T12:35:30;98461.43;;;17.97;44.11
66801;BME280;53703;50.326;19.122;2023-02-20T12:38:35;98429.38;;;18.05;43.83
66801;BME280;53703;50.326;19.122;2023-02-20T12:41:46;98451.22;;;18.07;44.17
66801;BME280;53703;50.326;19.122;2023-02-20T12:44:36;98427.36;;;18.12;43.80
66801;BME280;53703;50.326;19.122;2023-02-20T12:47:34;98418.71;;;18.13;44.39
66801;BME280;53703;50.326;19.122;2023-02-20T12:51:09;98422.05;;;18.18;44.35
66801;BME280;53703;50.326;19.122;2023-02-20T12:54:11;98424.04;;;18.12;46.67
66801;BME280;53703;50.326;19.122;2023-02-20T12:57:17;98414.56;;;18.21;46.44
66801;BME280;53703;50.326;19.122;2023-02-20T13:00:29;98409.16;;;18.16;46.23
66801;BME280;53703;50.326;19.122;2023-02-20T13:03:37;98417.77;;;18.23;45.78
66801;BME280;53703;50.326;19.122;2023-02-20T13:06:39;98408.59;;;18.22;46.14
66801;BME280;53703;50.326;19.122;2023-02-20T13:09:41;98391.88;;;18.29;45.54
66801;BME280;53703;50.326;19.122;2023-02-20T13:12:38;98387.77;;;18.29;45.76
66801;BME280;53703;50.326;19.122;2023-02-20T13:15:39;98381.83;;;18.31;46.11
66801;BME280;53703;50.326;19.122;2023-02-20T13:18:41;98374.90;;;18.33;46.78
66801;BME280;53703;50.326;19.122;2023-02-20T13:21:39;98359.04;;;18.36;46.40
66801;BME280;53703;50.326;19.122;2023-02-20T13:24:36;98364.83;;;18.41;50.64
66801;BME280;53703;50.326;19.122;2023-02-20T13:27:33;98352.39;;;18.43;49.38
66801;BME280;53703;50.326;19.122;2023-02-20T13:30:28;98358.30;;;18.49;47.43
66801;BME280;53703;50.326;19.122;2023-02-20T13:33:26;98334.06;;;18.49;50.06
66801;BME280;53703;50.326;19.122;2023-02-20T13:36:43;98331.81;;;18.50;47.23
66801;BME280;53703;50.326;19.122;2023-02-20T13:39:42;98326.35;;;18.57;46.49
66801;BME280;53703;50.326;19.122;2023-02-20T13:42:36;98325.45;;;18.55;46.48
66801;BME280;53703;50.326;19.122;2023-02-20T13:45:42;98309.19;;;18.56;46.60
66801;BME280;53703;50.326;19.122;2023-02-20T13:48:44;98295.52;;;18.55;46.50
66801;BME280;53703;50.326;19.122;2023-02-20T13:51:39;98292.54;;;18.56;46.55
66801;BME280;53703;50.326;19.122;2023-02-20T13:54:34;98284.52;;;18.58;45.96
66801;BME280;53703;50.326;19.122;2023-02-20T13:57:30;98278.73;;;18.61;46.54
66801;BME280;53703;50.326;19.122;2023-02-20T14:00:39;98270.42;;;18.60;46.93
66801;BME280;53703;50.326;19.122;2023-02-20T14:03:36;98252.95;;;18.58;46.76
66801;BME280;53703;50.326;19.122;2023-02-20T14:06:30;98240.95;;;18.58;46.96
66801;BME280;53703;50.326;19.122;2023-02-20T14:09:26;98227.38;;;18.55;48.08
66801;BME280;53703;50.326;19.122;2023-02-20T14:12:23;98205.52;;;18.56;48.12
66801;BME280;53703;50.326;19.122;2023-02-20T14:15:17;98191.81;;;18.53;47.16
66801;BME280;53703;50.326;19.122;2023-02-20T14:17:57;98183.57;;;18.60;47.41
66801;BME280;53703;50.326;19.122;2023-02-20T14:20:55;98178.20;;;18.85;46.42
66801;BME280;53703;50.326;19.122;2023-02-20T14:23:40;98187.75;;;18.94;45.97
66801;BME280;53703;50.326;19.122;2023-02-20T14:26:35;98191.02;;;18.74;46.24
66801;BME280;53703;50.326;19.122;2023-02-20T14:29:32;98180.61;;;18.67;46.75
66801;BME280;53703;50.326;19.122;2023-02-20T14:32:28;98176.21;;;18.64;46.81
66801;BME280;53703;50.326;19.122;2023-02-20T14:35:38;98170.05;;;18.59;48.15
66801;BME280;53703;50.326;19.122;2023-02-20T14:38:50;98167.94;;;18.52;48.14
66801;BME280;53703;50.326;19.122;2023-02-20T14:41:59;98156.98;;;18.61;48.41
66801;BME280;53703;50.326;19.122;2023-02-20T14:44:59;98155.11;;;18.70;47.33
66801;BME280;53703;50.326;19.122;2023-02-20T14:47:55;98152.54;;;18.55;48.30
66801;BME280;53703;50.326;19.122;2023-02-20T14:51:12;98139.77;;;18.56;48.86
66801;BME280;53703;50.326;19.122;2023-02-20T14:54:19;98134.83;;;18.58;48.52
66801;BME280;53703;50.326;19.122;2023-02-20T14:57:15;98120.34;;;18.61;47.93
66801;BME280;53703;50.326;19.122;2023-02-20T15:00:32;98122.55;;;18.57;48.44
66801;BME280;53703;50.326;19.122;2023-02-20T15:03:29;98128.16;;;18.48;48.55
66801;BME280;53703;50.326;19.122;2023-02-20T15:06:23;98134.80;;;18.48;48.06
66801;BME280;53703;50.326;19.122;2023-02-20T15:09:18;98134.70;;;18.47;48.29
66801;BME280;53703;50.326;19.122;2023-02-20T15:12:26;98126.19;;;18.48;48.14
66801;BME280;53703;50.326;19.122;2023-02-20T15:15:21;98127.89;;;18.55;48.44
66801;BME280;53703;50.326;19.122;2023-02-20T15:18:29;98135.42;;;18.57;47.35
66801;BME280;53703;50.326;19.122;2023-02-20T15:21:37;98127.06;;;18.49;47.25
66801;BME280;53703;50.326;19.122;2023-02-20T15:24:41;98119.41;;;18.49;47.53
66801;BME280;53703;50.326;19.122;2023-02-20T15:27:35;98116.60;;;18.47;46.85
66801;BME280;53703;50.326;19.122;2023-02-20T15:30:28;98111.09;;;18.47;47.19
66801;BME280;53703;50.326;19.122;2023-02-20T15:33:22;98108.13;;;18.49;47.17
66801;BME280;53703;50.326;19.122;2023-02-20T15:36:21;98113.69;;;18.55;46.35
66801;BME280;53703;50.326;19.122;2023-02-20T15:39:16;98126.32;;;18.51;46.77